Nashville, Iowa
Current Conditions -  °F | °C
As of 9:53 AM on Monday 22 Dec 2014 (Local Time) from KDBQ Reporting Station
Haze Haze  
Wind Chill: 25°   Ceiling: 3700
Heat Index: 34°   Visibility: 5mi
Dew Point: 31°   Wind: 13mph
Humidity: 89%   Direction: 130°SE
Pressure: 29.75"   Gusts: NA
Location:  42.12°N, 90.7234°W
Report Text: KDBQ 221553Z 13011KT 5SM BR OVC037 01/M01 A2975 RMK AO2 SLP085 T00111006
Loading
Personal Weather Stations






























Interactive Weather Map New forecast layout! Learn more

10-Day Weather Forecast

Advertisements
Track Severe Weather on mobile